createdAt,value
2018-03-06T00:02:05.249Z,4.80
2018-03-06T00:04:33.523Z,4.93
2018-03-06T00:07:02.561Z,4.88
2018-03-06T00:09:30.840Z,4.75
2018-03-06T00:11:59.104Z,4.72
2018-03-06T00:14:28.153Z,4.70
2018-03-06T00:16:56.415Z,4.82
2018-03-06T00:19:25.453Z,4.87
2018-03-06T00:21:53.719Z,4.77
2018-03-06T00:24:21.995Z,4.69
2018-03-06T00:26:51.027Z,4.73
2018-03-06T00:29:19.303Z,4.68
2018-03-06T00:31:47.570Z,4.69
2018-03-06T00:34:16.608Z,4.57
2018-03-06T00:36:45.640Z,4.52
2018-03-06T00:39:14.687Z,4.46
2018-03-06T00:41:43.716Z,4.44
2018-03-06T00:44:11.991Z,4.52
2018-03-06T00:46:41.024Z,4.57
2018-03-06T00:49:09.299Z,4.56
2018-03-06T00:51:37.566Z,4.25
2018-03-06T00:54:05.839Z,4.28
2018-03-06T00:56:34.104Z,4.35
2018-03-06T00:59:02.380Z,4.31
2018-03-06T01:01:30.640Z,4.34
2018-03-06T01:03:58.919Z,4.40
2018-03-06T01:06:27.951Z,4.41
2018-03-06T01:08:56.991Z,4.31
2018-03-06T01:11:25.259Z,4.29
2018-03-06T01:13:53.540Z,4.40
2018-03-06T01:16:21.806Z,4.39
2018-03-06T01:18:50.079Z,4.38
2018-03-06T01:21:19.107Z,4.39
2018-03-06T01:23:47.387Z,4.36
2018-03-06T01:26:15.651Z,4.37
2018-03-06T01:28:43.914Z,4.37
2018-03-06T01:31:12.188Z,4.18
2018-03-06T01:33:40.466Z,4.28
2018-03-06T01:36:08.740Z,4.35
2018-03-06T01:38:36.999Z,4.32
2018-03-06T01:41:06.041Z,4.39
2018-03-06T01:43:34.302Z,4.37
2018-03-06T01:46:03.339Z,4.27
2018-03-06T01:48:31.604Z,4.13
2018-03-06T01:50:59.878Z,4.09
2018-03-06T01:53:28.904Z,4.10
2018-03-06T01:55:57.175Z,4.06
2018-03-06T01:58:26.204Z,4.09
2018-03-06T02:00:54.476Z,4.13
2018-03-06T02:03:23.503Z,3.67
2018-03-06T02:05:51.776Z,3.65
2018-03-06T02:08:20.800Z,3.78
2018-03-06T02:10:49.825Z,3.78
2018-03-06T02:13:18.087Z,3.43
2018-03-06T02:15:46.359Z,3.52
2018-03-06T02:18:15.388Z,3.59
2018-03-06T02:20:43.660Z,3.64
2018-03-06T02:23:12.687Z,3.75
2018-03-06T02:25:40.958Z,3.84
2018-03-06T02:28:09.223Z,3.83
2018-03-06T02:30:38.264Z,3.82
2018-03-06T02:33:06.519Z,3.74
2018-03-06T02:35:35.551Z,3.67
2018-03-06T02:38:03.816Z,3.66
2018-03-06T02:40:32.088Z,3.68
2018-03-06T02:43:00.351Z,3.66
2018-03-06T02:45:29.387Z,3.67
2018-03-06T02:47:57.652Z,3.59
2018-03-06T02:50:25.924Z,3.51
2018-03-06T02:52:54.183Z,3.48
2018-03-06T02:55:22.460Z,3.40
2018-03-06T02:57:51.484Z,3.44
2018-03-06T03:00:19.745Z,3.34
2018-03-06T03:02:48.012Z,3.27
2018-03-06T03:05:16.263Z,3.21
2018-03-06T03:07:44.534Z,3.31
2018-03-06T03:10:12.791Z,3.28
2018-03-06T03:12:41.060Z,3.27
2018-03-06T03:15:09.315Z,3.27
2018-03-06T03:17:37.583Z,3.32
2018-03-06T03:20:05.839Z,3.39
2018-03-06T03:22:34.118Z,3.37
2018-03-06T03:25:02.463Z,3.31
2018-03-06T03:27:30.732Z,3.37
2018-03-06T03:29:59.759Z,3.34
2018-03-06T03:32:28.028Z,3.34
2018-03-06T03:34:57.061Z,3.39
2018-03-06T03:37:25.332Z,3.37
2018-03-06T03:39:53.595Z,3.29
2018-03-06T03:42:22.687Z,3.25
2018-03-06T03:44:50.891Z,3.31
2018-03-06T03:47:19.928Z,3.30
2018-03-06T03:49:48.187Z,3.29
2018-03-06T03:52:17.221Z,3.24
2018-03-06T03:54:45.480Z,3.29
2018-03-06T03:57:14.552Z,3.30
2018-03-06T03:59:43.575Z,3.35
2018-03-06T04:02:11.847Z,3.35
2018-03-06T04:04:40.103Z,3.33
2018-03-06T04:07:08.371Z,3.31
2018-03-06T04:09:37.395Z,3.28
2018-03-06T04:12:05.663Z,3.25
2018-03-06T04:14:34.691Z,3.19
2018-03-06T04:17:02.959Z,3.17
2018-03-06T04:19:31.995Z,3.23
2018-03-06T04:22:00.280Z,3.21
2018-03-06T04:24:28.536Z,3.09
2018-03-06T04:26:56.808Z,3.08
2018-03-06T04:29:25.080Z,3.03
2018-03-06T04:31:53.335Z,2.98
2018-03-06T04:34:22.368Z,2.91
2018-03-06T04:36:50.623Z,2.83
2018-03-06T04:39:18.892Z,2.79
2018-03-06T04:41:47.915Z,2.73
2018-03-06T04:44:16.183Z,2.75
2018-03-06T04:46:45.208Z,2.63
2018-03-06T04:49:13.480Z,2.73
2018-03-06T04:51:42.508Z,2.84
2018-03-06T04:54:10.784Z,2.82
2018-03-06T04:56:39.040Z,2.68
2018-03-06T04:59:07.311Z,2.59
2018-03-06T05:01:35.596Z,2.55
2018-03-06T05:04:03.845Z,2.49
2018-03-06T05:06:32.103Z,2.46
2018-03-06T05:09:01.139Z,2.39
2018-03-06T05:11:29.395Z,2.52
2018-03-06T05:13:58.480Z,2.58
2018-03-06T05:16:26.732Z,2.61
2018-03-06T05:18:55.003Z,2.47
2018-03-06T05:21:23.259Z,2.54
2018-03-06T05:23:51.524Z,2.54
2018-03-06T05:26:19.787Z,2.55
2018-03-06T05:28:48.820Z,2.41
2018-03-06T05:31:17.082Z,2.32
2018-03-06T05:33:45.349Z,2.43
2018-03-06T05:36:13.602Z,2.55
2018-03-06T05:38:41.876Z,2.59
2018-03-06T05:41:10.131Z,2.57
2018-03-06T05:43:38.399Z,2.68
2018-03-06T05:46:06.659Z,2.68
2018-03-06T05:48:34.923Z,2.36
2018-03-06T05:51:03.180Z,2.40
2018-03-06T05:53:31.451Z,2.11
2018-03-06T05:55:59.707Z,2.31
2018-03-06T05:58:27.964Z,2.52
2018-03-06T06:00:56.233Z,2.43
2018-03-06T06:03:24.491Z,2.54
2018-03-06T06:05:53.527Z,2.51
2018-03-06T06:08:22.875Z,2.42
2018-03-06T06:10:51.959Z,2.37
2018-03-06T06:13:20.218Z,2.55
2018-03-06T06:15:49.252Z,2.63
2018-03-06T06:18:17.519Z,2.76
2018-03-06T06:20:46.547Z,2.78
2018-03-06T06:23:14.811Z,2.66
2018-03-06T06:25:43.842Z,2.89
2018-03-06T06:28:12.095Z,3.03
2018-03-06T06:30:41.247Z,3.09
2018-03-06T06:33:09.504Z,3.01
2018-03-06T06:35:38.542Z,3.31
2018-03-06T06:38:06.803Z,3.48
2018-03-06T06:40:35.831Z,3.57
2018-03-06T06:43:04.088Z,3.59
2018-03-06T06:45:33.120Z,2.93
2018-03-06T06:48:01.377Z,3.35
2018-03-06T06:50:30.411Z,3.29
2018-03-06T06:52:58.679Z,2.82
2018-03-06T06:55:27.715Z,3.28
2018-03-06T06:57:55.975Z,3.60
2018-03-06T07:00:24.243Z,3.87
2018-03-06T07:02:52.872Z,4.10
2018-03-06T07:05:21.907Z,4.27
2018-03-06T07:07:50.167Z,4.17
2018-03-06T07:10:19.210Z,4.02
2018-03-06T07:12:48.231Z,4.46
2018-03-06T07:15:16.504Z,4.66
2018-03-06T07:17:44.762Z,4.87
2018-03-06T07:20:13.035Z,4.98
2018-03-06T07:22:42.064Z,5.06
2018-03-06T07:25:10.342Z,5.32
2018-03-06T07:27:39.368Z,5.52
2018-03-06T07:30:07.635Z,5.49
2018-03-06T07:32:36.664Z,5.67
2018-03-06T07:35:05.163Z,5.73
2018-03-06T07:37:33.419Z,5.98
2018-03-06T07:40:02.815Z,6.18
2018-03-06T07:42:31.068Z,6.25
2018-03-06T07:45:00.100Z,6.27
2018-03-06T07:47:28.359Z,5.99
2018-03-06T07:49:56.628Z,5.75
2018-03-06T07:52:24.887Z,6.05
2018-03-06T07:54:53.920Z,6.53
2018-03-06T07:57:22.167Z,6.83
2018-03-06T07:59:50.443Z,6.98
2018-03-06T08:02:18.694Z,7.05
2018-03-06T08:04:46.955Z,7.21
2018-03-06T08:07:15.976Z,7.36
2018-03-06T08:09:44.239Z,7.65
2018-03-06T08:12:12.491Z,7.73
2018-03-06T08:14:40.745Z,7.81
2018-03-06T08:17:09.011Z,7.89
2018-03-06T08:19:38.023Z,8.13
2018-03-06T08:22:07.051Z,8.38
2018-03-06T08:24:35.308Z,8.62
2018-03-06T08:27:04.340Z,8.85
2018-03-06T08:29:32.596Z,9.12
2018-03-06T08:32:00.860Z,9.27
2018-03-06T08:37:03.543Z,9.39
2018-03-06T08:39:31.798Z,9.53
2018-03-06T08:42:00.833Z,9.71
2018-03-06T08:44:29.092Z,9.65
2018-03-06T08:46:58.124Z,9.78
2018-03-06T08:49:26.374Z,9.70
2018-03-06T08:51:54.644Z,9.86
2018-03-06T08:54:22.907Z,10.41
2018-03-06T08:56:51.187Z,10.77
2018-03-06T08:59:19.443Z,11.13
2018-03-06T09:01:48.476Z,11.41
2018-03-06T09:04:16.732Z,11.64
2018-03-06T09:06:44.996Z,11.81
2018-03-06T09:09:13.251Z,11.97
2018-03-06T09:11:41.515Z,12.21
2018-03-06T09:14:10.545Z,12.55
2018-03-06T09:16:38.811Z,12.74
2018-03-06T09:19:07.068Z,12.93
2018-03-06T09:21:36.657Z,13.03
2018-03-06T09:24:04.923Z,13.42
2018-03-06T09:26:33.192Z,13.77
2018-03-06T09:29:02.220Z,13.94
2018-03-06T09:31:30.488Z,14.26
2018-03-06T09:33:59.508Z,14.49
2018-03-06T09:36:27.776Z,14.64
2018-03-06T09:38:56.797Z,14.86
2018-03-06T09:41:25.067Z,15.10
2018-03-06T09:43:54.087Z,15.25
2018-03-06T09:46:22.447Z,15.49
2018-03-06T09:48:50.705Z,15.23
2018-03-06T09:51:18.964Z,15.40
2018-03-06T09:53:47.229Z,15.18
2018-03-06T09:56:15.487Z,15.11
2018-03-06T09:58:43.743Z,15.28
2018-03-06T10:01:12.017Z,15.27
2018-03-06T10:03:40.267Z,15.18
2018-03-06T10:06:08.559Z,15.29
2018-03-06T10:08:36.835Z,15.09
2018-03-06T10:11:05.129Z,14.98
2018-03-06T10:13:33.407Z,14.73
2018-03-06T10:16:01.694Z,14.61
2018-03-06T10:18:29.971Z,14.57
2018-03-06T10:20:58.255Z,14.55
2018-03-06T10:23:26.526Z,14.48
2018-03-06T10:25:54.814Z,14.12
2018-03-06T10:28:23.092Z,13.97
2018-03-06T10:30:51.387Z,13.77
2018-03-06T10:33:19.674Z,13.90
2018-03-06T10:35:47.963Z,13.97
2018-03-06T10:38:16.244Z,13.91
2018-03-06T10:40:44.544Z,13.92
2018-03-06T10:43:12.824Z,13.64
2018-03-06T10:45:41.116Z,13.65
2018-03-06T10:48:09.391Z,13.88
2018-03-06T10:50:38.448Z,13.70
2018-03-06T10:53:06.740Z,13.91
2018-03-06T10:55:35.020Z,14.03
2018-03-06T10:58:03.320Z,14.05
2018-03-06T11:00:49.259Z,13.99
2018-03-06T11:03:23.360Z,14.10
2018-03-06T11:05:52.427Z,13.95
2018-03-06T11:08:20.683Z,14.19
2018-03-06T11:10:49.716Z,14.23
2018-03-06T11:13:17.972Z,14.22
2018-03-06T11:15:46.991Z,14.53
2018-03-06T11:18:16.032Z,14.78
2018-03-06T11:20:45.060Z,14.94
2018-03-06T11:23:13.318Z,15.18
2018-03-06T11:25:41.572Z,15.33
2018-03-06T11:28:10.605Z,15.52
2018-03-06T11:30:38.866Z,15.66
2018-03-06T11:33:07.896Z,15.84
2018-03-06T11:35:36.151Z,15.79
2018-03-06T11:38:04.423Z,15.56
2018-03-06T11:40:32.678Z,15.74
2018-03-06T11:43:00.983Z,15.93
2018-03-06T11:45:29.244Z,15.70
2018-03-06T11:47:57.545Z,15.57
2018-03-06T11:50:26.527Z,16.05
2018-03-06T11:52:54.797Z,16.18
2018-03-06T11:55:23.815Z,16.36
2018-03-06T11:57:52.847Z,16.59
2018-03-06T12:00:21.102Z,16.67
2018-03-06T12:02:50.135Z,16.37
2018-03-06T12:05:18.395Z,15.67
2018-03-06T12:07:47.427Z,15.91
2018-03-06T12:10:16.611Z,16.12
2018-03-06T12:12:45.640Z,16.29
2018-03-06T12:15:13.895Z,16.30
2018-03-06T12:17:42.159Z,16.59
2018-03-06T12:20:10.415Z,16.65
2018-03-06T12:22:38.683Z,17.01
2018-03-06T12:25:07.703Z,17.16
2018-03-06T12:27:35.968Z,16.43
2018-03-06T12:30:05.015Z,16.80
2018-03-06T12:32:33.263Z,16.90
2018-03-06T12:35:02.288Z,17.08
2018-03-06T12:37:30.557Z,17.26
2018-03-06T12:39:59.586Z,17.42
2018-03-06T12:42:27.847Z,17.57
2018-03-06T12:44:56.873Z,17.73
2018-03-06T12:47:25.138Z,17.77
2018-03-06T12:49:54.168Z,17.63
2018-03-06T12:52:22.435Z,17.19
2018-03-06T12:54:51.487Z,17.21
2018-03-06T12:57:19.723Z,17.27
2018-03-06T12:59:47.974Z,17.54
2018-03-06T13:02:16.599Z,17.60
2018-03-06T13:04:44.851Z,17.80
2018-03-06T13:07:13.174Z,17.78
2018-03-06T13:09:41.534Z,17.74
2018-03-06T13:12:09.795Z,17.83
2018-03-06T13:14:38.048Z,17.70
2018-03-06T13:17:06.311Z,17.81
2018-03-06T13:19:34.567Z,17.83
2018-03-06T13:22:02.831Z,17.37
2018-03-06T13:24:31.853Z,16.39
2018-03-06T13:27:00.244Z,15.72
2018-03-06T13:29:28.501Z,15.48
2018-03-06T13:31:56.760Z,15.01
2018-03-06T13:34:25.019Z,14.99
2018-03-06T13:36:53.317Z,14.76
2018-03-06T13:39:22.300Z,14.45
2018-03-06T13:41:50.568Z,14.32
2018-03-06T13:44:18.821Z,14.32
2018-03-06T13:46:47.084Z,14.17
2018-03-06T13:49:15.340Z,14.15
2018-03-06T13:51:44.371Z,13.88
2018-03-06T13:54:12.631Z,13.89
2018-03-06T13:56:40.891Z,13.75
2018-03-06T13:59:09.160Z,13.61
2018-03-06T14:01:37.420Z,13.63
2018-03-06T14:04:05.683Z,13.76
2018-03-06T14:06:34.709Z,13.52
2018-03-06T14:09:02.970Z,13.44
2018-03-06T14:11:31.991Z,13.31
2018-03-06T14:14:01.026Z,13.46
2018-03-06T14:16:29.279Z,13.65
2018-03-06T14:18:58.311Z,13.78
2018-03-06T14:21:26.566Z,13.82
2018-03-06T14:23:54.832Z,13.64
2018-03-06T14:26:23.087Z,13.70
2018-03-06T14:28:51.352Z,13.85
2018-03-06T14:31:19.607Z,13.04
2018-03-06T14:33:47.871Z,13.24
2018-03-06T14:36:16.123Z,13.38
2018-03-06T14:38:44.391Z,13.06
2018-03-06T14:41:13.411Z,13.13
2018-03-06T14:43:41.676Z,13.25
2018-03-06T14:46:09.928Z,12.90
2018-03-06T14:48:38.192Z,12.91
2018-03-06T14:51:06.487Z,12.96
2018-03-06T14:53:35.480Z,13.34
2018-03-06T14:56:03.732Z,13.53
2018-03-06T14:58:31.995Z,13.27
2018-03-06T15:01:00.250Z,13.30
2018-03-06T15:03:28.514Z,12.98
2018-03-06T15:05:57.535Z,12.41
2018-03-06T15:08:25.795Z,12.41
2018-03-06T15:10:54.816Z,12.47
2018-03-06T15:13:23.851Z,12.43
2018-03-06T15:15:52.112Z,12.24
2018-03-06T15:18:21.136Z,12.41
2018-03-06T15:20:49.976Z,12.46
2018-03-06T15:23:18.237Z,12.25
2018-03-06T15:25:46.489Z,12.45
2018-03-06T15:28:15.519Z,12.37
2018-03-06T15:30:43.779Z,12.18
2018-03-06T15:33:12.811Z,12.07
2018-03-06T15:35:41.063Z,12.17
2018-03-06T15:38:09.327Z,12.10
2018-03-06T15:40:37.582Z,12.23
2018-03-06T15:43:05.843Z,12.31
2018-03-06T15:45:34.865Z,12.39
2018-03-06T15:48:03.127Z,12.31
2018-03-06T15:50:32.151Z,12.32
2018-03-06T15:53:01.181Z,12.49
2018-03-06T15:55:29.438Z,12.63
2018-03-06T15:57:58.466Z,12.61
2018-03-06T16:00:26.723Z,12.65
2018-03-06T16:02:55.759Z,12.63
2018-03-06T16:05:24.015Z,12.57
2018-03-06T16:07:52.279Z,12.54
2018-03-06T16:10:20.536Z,12.44
2018-03-06T16:12:48.838Z,12.47
2018-03-06T16:15:17.059Z,12.47
2018-03-06T16:17:45.314Z,12.38
2018-03-06T16:20:13.578Z,12.25
2018-03-06T16:22:41.834Z,12.16
2018-03-06T16:25:10.863Z,12.09
2018-03-06T16:27:39.157Z,11.98
2018-03-06T16:30:07.388Z,11.91
2018-03-06T16:32:35.647Z,11.82
2018-03-06T16:35:03.911Z,11.63
2018-03-06T16:37:32.167Z,11.42
2018-03-06T16:40:00.432Z,11.32
2018-03-06T16:42:28.727Z,11.27
2018-03-06T16:44:56.950Z,11.16
2018-03-06T16:47:25.973Z,11.09
2018-03-06T16:49:54.243Z,11.03
2018-03-06T16:52:23.263Z,10.99
2018-03-06T16:54:51.535Z,10.85
2018-03-06T16:57:20.559Z,10.74
2018-03-06T16:59:48.831Z,10.60
2018-03-06T17:02:17.861Z,10.52
2018-03-06T17:04:46.136Z,10.42
2018-03-06T17:07:15.152Z,10.23
2018-03-06T17:09:43.416Z,10.15
2018-03-06T17:12:12.440Z,10.01
2018-03-06T17:14:41.468Z,9.78
2018-03-06T17:17:09.726Z,9.74
2018-03-06T17:19:38.757Z,9.66
2018-03-06T17:22:07.015Z,9.45
2018-03-06T17:24:36.046Z,9.43
2018-03-06T17:27:04.299Z,9.42
2018-03-06T17:29:32.561Z,9.44
2018-03-06T17:32:00.823Z,9.41
2018-03-06T17:34:29.091Z,9.05
2018-03-06T17:36:57.340Z,9.00
2018-03-06T17:39:25.604Z,9.10
2018-03-06T17:41:53.856Z,9.04
2018-03-06T17:44:22.115Z,9.02
2018-03-06T17:46:51.140Z,8.99
2018-03-06T17:49:20.172Z,8.97
2018-03-06T17:51:48.460Z,8.94
2018-03-06T17:54:16.732Z,8.84
2018-03-06T17:56:44.983Z,8.86
2018-03-06T17:59:13.251Z,8.88
2018-03-06T18:01:41.507Z,8.90
2018-03-06T18:04:09.774Z,8.95
2018-03-06T18:06:38.797Z,8.91
2018-03-06T18:09:07.051Z,8.96
2018-03-06T18:11:35.302Z,8.89
2018-03-06T18:14:03.567Z,8.87
2018-03-06T18:16:31.846Z,8.82
2018-03-06T18:19:00.108Z,8.81
2018-03-06T18:21:28.356Z,8.85
2018-03-06T18:23:56.619Z,8.81
2018-03-06T18:26:24.867Z,8.82
2018-03-06T18:28:53.136Z,8.85
2018-03-06T18:31:21.383Z,8.81
2018-03-06T18:33:49.652Z,8.70
2018-03-06T18:36:18.671Z,8.68
2018-03-06T18:38:46.928Z,8.73
2018-03-06T18:41:15.959Z,8.75
2018-03-06T18:43:44.216Z,8.58
2018-03-06T18:46:12.480Z,8.49
2018-03-06T18:48:40.735Z,8.61
2018-03-06T18:51:10.454Z,8.67
2018-03-06T18:53:38.708Z,8.71
2018-03-06T18:56:06.984Z,8.75
2018-03-06T18:58:35.227Z,8.60
2018-03-06T19:04:31.388Z,8.47
2018-03-06T19:07:14.497Z,8.48
2018-03-06T19:09:42.772Z,8.50
2018-03-06T19:12:11.033Z,8.55
2018-03-06T19:14:39.300Z,8.56
2018-03-06T19:17:07.556Z,8.60
2018-03-06T19:19:35.839Z,8.65
2018-03-06T19:22:04.094Z,8.63
2018-03-06T19:24:32.344Z,8.64
2018-03-06T19:27:00.620Z,8.55
2018-03-06T19:29:29.641Z,8.42
2018-03-06T19:31:57.903Z,8.29
2018-03-06T19:34:26.919Z,7.94
2018-03-06T19:36:55.953Z,8.22
2018-03-06T19:39:24.212Z,8.36
2018-03-06T19:41:53.246Z,8.44
2018-03-06T19:44:21.564Z,8.32
2018-03-06T19:46:50.532Z,8.30
2018-03-06T19:49:18.866Z,8.39
2018-03-06T19:51:47.143Z,8.47
2018-03-06T19:54:15.396Z,8.33
2018-03-06T19:56:43.668Z,8.49
2018-03-06T19:59:12.687Z,8.53
2018-03-06T20:01:41.727Z,8.54
2018-03-06T20:04:09.971Z,8.59
2018-03-06T20:06:39.007Z,8.64
2018-03-06T20:09:07.271Z,8.69
2018-03-06T20:11:36.307Z,8.67
2018-03-06T20:14:04.552Z,8.70
2018-03-06T20:16:33.584Z,8.63
2018-03-06T20:22:04.663Z,8.60
2018-03-06T20:24:39.215Z,8.52
2018-03-06T20:27:07.482Z,8.49
2018-03-06T20:29:36.508Z,8.51
2018-03-06T20:32:10.256Z,8.59
2018-03-06T20:34:38.510Z,8.45
2018-03-06T20:37:06.802Z,8.41
2018-03-06T20:39:40.476Z,8.42
2018-03-06T20:42:08.739Z,8.45
2018-03-06T20:44:37.008Z,8.47
2018-03-06T20:47:10.867Z,8.37
2018-03-06T20:49:39.120Z,8.18
2018-03-06T20:52:07.387Z,8.18
2018-03-06T20:54:41.276Z,8.18
2018-03-06T20:57:09.541Z,8.15
2018-03-06T20:59:37.799Z,8.22
2018-03-06T21:02:06.059Z,8.33
2018-03-06T21:04:35.088Z,8.36
2018-03-06T21:07:03.352Z,8.35
2018-03-06T21:09:31.612Z,8.32
2018-03-06T21:11:59.884Z,8.26
2018-03-06T21:14:28.144Z,8.36
2018-03-06T21:16:56.414Z,8.38
2018-03-06T21:19:24.708Z,8.34
2018-03-06T21:21:52.935Z,8.37
2018-03-06T21:24:21.186Z,8.41
2018-03-06T21:26:49.452Z,8.37
2018-03-06T21:29:18.479Z,8.18
2018-03-06T21:31:46.739Z,8.18
2018-03-06T21:34:15.760Z,8.19
2018-03-06T21:36:44.028Z,8.18
2018-03-06T21:39:12.276Z,8.20
2018-03-06T21:41:40.549Z,8.22
2018-03-06T21:44:08.803Z,8.26
2018-03-06T21:46:37.836Z,8.24
2018-03-06T21:49:06.092Z,8.22
2018-03-06T21:51:35.131Z,8.22
2018-03-06T21:54:03.390Z,8.22
2018-03-06T21:56:32.427Z,8.23
2018-03-06T21:59:00.684Z,8.18
2018-03-06T22:01:29.725Z,8.24
2018-03-06T22:03:57.983Z,8.08
2018-03-06T22:06:27.072Z,7.98
2018-03-06T22:08:55.332Z,7.97
2018-03-06T22:11:23.593Z,7.90
2018-03-06T22:13:51.856Z,7.82
2018-03-06T22:16:20.128Z,7.83
2018-03-06T22:18:49.151Z,7.81
2018-03-06T22:21:18.192Z,7.71
2018-03-06T22:23:46.475Z,7.57
2018-03-06T22:26:14.768Z,7.56
2018-03-06T22:28:43.027Z,7.21
2018-03-06T22:31:11.291Z,7.33
2018-03-06T22:33:39.556Z,7.45
2018-03-06T22:36:07.811Z,7.62
2018-03-06T22:38:36.080Z,7.72
2018-03-06T22:41:04.378Z,7.78
2018-03-06T22:43:32.615Z,7.82
2018-03-06T22:46:00.867Z,7.79
2018-03-06T22:48:29.138Z,7.81
2018-03-06T22:50:57.400Z,7.58
2018-03-06T22:53:26.433Z,7.44
2018-03-06T22:55:54.695Z,7.57
2018-03-06T22:58:22.961Z,7.62
2018-03-06T23:00:51.219Z,7.67
2018-03-06T23:03:20.405Z,7.72
2018-03-06T23:05:48.660Z,7.76
2018-03-06T23:08:16.924Z,7.82
2018-03-06T23:10:45.184Z,7.66
2018-03-06T23:13:13.459Z,7.71
2018-03-06T23:15:41.716Z,7.76
2018-03-06T23:18:09.979Z,7.79
2018-03-06T23:20:38.236Z,7.84
2018-03-06T23:23:06.508Z,7.93
2018-03-06T23:25:34.763Z,7.98
2018-03-06T23:28:03.031Z,8.03
2018-03-06T23:30:31.292Z,8.12
2018-03-06T23:32:59.559Z,8.13
2018-03-06T23:35:27.828Z,8.16
2018-03-06T23:37:56.096Z,8.18
2018-03-06T23:40:24.351Z,8.21
2018-03-06T23:42:52.615Z,8.22
2018-03-06T23:45:20.877Z,8.07
2018-03-06T23:47:49.146Z,8.01
2018-03-06T23:50:17.399Z,8.00
2018-03-06T23:52:45.659Z,8.02
2018-03-06T23:55:14.684Z,8.00
2018-03-06T23:57:42.951Z,8.06
